sensor_id;sensor_type;location;lat;lon;timestamp;temperature;humidity
41437;DHT22;27178;49.460;10.850;2023-04-06T00:00:35;6.30;51.80
41437;DHT22;27178;49.460;10.850;2023-04-06T00:03:04;6.30;51.80
41437;DHT22;27178;49.460;10.850;2023-04-06T00:05:33;6.30;51.90
41437;DHT22;27178;49.460;10.850;2023-04-06T00:08:01;6.30;51.90
41437;DHT22;27178;49.460;10.850;2023-04-06T00:10:30;6.20;51.90
41437;DHT22;27178;49.460;10.850;2023-04-06T00:12:58;6.20;51.90
41437;DHT22;27178;49.460;10.850;2023-04-06T00:15:27;6.20;52.10
41437;DHT22;27178;49.460;10.850;2023-04-06T00:17:56;6.10;52.20
41437;DHT22;27178;49.460;10.850;2023-04-06T00:20:26;6.10;52.30
41437;DHT22;27178;49.460;10.850;2023-04-06T00:22:55;6.10;52.50
41437;DHT22;27178;49.460;10.850;2023-04-06T00:25:23;6.10;52.40
41437;DHT22;27178;49.460;10.850;2023-04-06T00:27:51;6.00;52.30
41437;DHT22;27178;49.460;10.850;2023-04-06T00:30:20;6.00;52.50
41437;DHT22;27178;49.460;10.850;2023-04-06T00:32:48;6.00;52.50
41437;DHT22;27178;49.460;10.850;2023-04-06T00:35:17;5.90;52.50
41437;DHT22;27178;49.460;10.850;2023-04-06T00:37:47;5.90;52.70
41437;DHT22;27178;49.460;10.850;2023-04-06T00:40:19;5.80;52.80
41437;DHT22;27178;49.460;10.850;2023-04-06T00:42:48;5.80;52.90
41437;DHT22;27178;49.460;10.850;2023-04-06T00:45:17;5.80;53.00
41437;DHT22;27178;49.460;10.850;2023-04-06T00:47:45;5.80;53.00
41437;DHT22;27178;49.460;10.850;2023-04-06T00:50:14;5.70;53.10
41437;DHT22;27178;49.460;10.850;2023-04-06T00:52:43;5.70;53.10
41437;DHT22;27178;49.460;10.850;2023-04-06T00:55:12;5.70;53.10
41437;DHT22;27178;49.460;10.850;2023-04-06T00:57:41;5.70;53.30
41437;DHT22;27178;49.460;10.850;2023-04-06T01:00:10;5.70;53.20
41437;DHT22;27178;49.460;10.850;2023-04-06T01:02:39;5.70;53.20
41437;DHT22;27178;49.460;10.850;2023-04-06T01:05:07;5.70;53.30
41437;DHT22;27178;49.460;10.850;2023-04-06T01:07:36;5.60;53.40
41437;DHT22;27178;49.460;10.850;2023-04-06T01:10:05;5.60;53.60
41437;DHT22;27178;49.460;10.850;2023-04-06T01:12:35;5.60;53.70
41437;DHT22;27178;49.460;10.850;2023-04-06T01:15:05;5.50;53.80
41437;DHT22;27178;49.460;10.850;2023-04-06T01:17:34;5.50;54.00
41437;DHT22;27178;49.460;10.850;2023-04-06T01:20:03;5.50;54.10
41437;DHT22;27178;49.460;10.850;2023-04-06T01:22:33;5.50;54.20
41437;DHT22;27178;49.460;10.850;2023-04-06T01:25:01;5.50;54.20
41437;DHT22;27178;49.460;10.850;2023-04-06T01:27:29;5.50;54.20
41437;DHT22;27178;49.460;10.850;2023-04-06T01:29:58;5.40;54.20
41437;DHT22;27178;49.460;10.850;2023-04-06T01:32:26;5.40;54.00
41437;DHT22;27178;49.460;10.850;2023-04-06T01:34:54;5.40;54.10
41437;DHT22;27178;49.460;10.850;2023-04-06T01:37:22;5.40;54.00
41437;DHT22;27178;49.460;10.850;2023-04-06T01:39:52;5.30;54.00
41437;DHT22;27178;49.460;10.850;2023-04-06T01:42:21;5.30;54.40
41437;DHT22;27178;49.460;10.850;2023-04-06T01:44:49;5.30;54.20
41437;DHT22;27178;49.460;10.850;2023-04-06T01:47:18;5.30;54.30
41437;DHT22;27178;49.460;10.850;2023-04-06T01:49:46;5.30;54.40
41437;DHT22;27178;49.460;10.850;2023-04-06T01:52:15;5.20;54.40
41437;DHT22;27178;49.460;10.850;2023-04-06T01:54:43;5.20;54.50
41437;DHT22;27178;49.460;10.850;2023-04-06T01:57:13;5.20;54.60
41437;DHT22;27178;49.460;10.850;2023-04-06T01:59:41;5.20;54.70
41437;DHT22;27178;49.460;10.850;2023-04-06T02:02:10;5.20;54.50
41437;DHT22;27178;49.460;10.850;2023-04-06T02:04:39;5.20;54.50
41437;DHT22;27178;49.460;10.850;2023-04-06T02:07:08;5.20;54.60
41437;DHT22;27178;49.460;10.850;2023-04-06T02:09:36;5.20;54.70
41437;DHT22;27178;49.460;10.850;2023-04-06T02:12:05;5.20;54.80
41437;DHT22;27178;49.460;10.850;2023-04-06T02:14:35;5.10;54.80
41437;DHT22;27178;49.460;10.850;2023-04-06T02:17:03;5.10;54.90
41437;DHT22;27178;49.460;10.850;2023-04-06T02:19:32;5.00;54.90
41437;DHT22;27178;49.460;10.850;2023-04-06T02:22:00;5.00;54.90
41437;DHT22;27178;49.460;10.850;2023-04-06T02:24:29;4.90;55.10
41437;DHT22;27178;49.460;10.850;2023-04-06T02:26:57;4.90;55.10
41437;DHT22;27178;49.460;10.850;2023-04-06T02:29:25;4.90;55.00
41437;DHT22;27178;49.460;10.850;2023-04-06T02:31:55;4.90;55.10
41437;DHT22;27178;49.460;10.850;2023-04-06T02:34:23;4.80;55.10
41437;DHT22;27178;49.460;10.850;2023-04-06T02:36:52;4.80;55.10
41437;DHT22;27178;49.460;10.850;2023-04-06T02:39:20;4.80;55.30
41437;DHT22;27178;49.460;10.850;2023-04-06T02:41:49;4.80;55.40
41437;DHT22;27178;49.460;10.850;2023-04-06T02:44:18;4.80;55.40
41437;DHT22;27178;49.460;10.850;2023-04-06T02:46:46;4.80;55.40
41437;DHT22;27178;49.460;10.850;2023-04-06T02:49:16;4.80;55.40
41437;DHT22;27178;49.460;10.850;2023-04-06T02:51:44;4.70;55.40
41437;DHT22;27178;49.460;10.850;2023-04-06T02:54:13;4.70;55.40
41437;DHT22;27178;49.460;10.850;2023-04-06T02:56:41;4.70;55.40
41437;DHT22;27178;49.460;10.850;2023-04-06T02:59:10;4.70;55.50
41437;DHT22;27178;49.460;10.850;2023-04-06T03:01:38;4.70;55.50
41437;DHT22;27178;49.460;10.850;2023-04-06T03:04:06;4.70;55.50
41437;DHT22;27178;49.460;10.850;2023-04-06T03:06:36;4.70;55.60
41437;DHT22;27178;49.460;10.850;2023-04-06T03:09:06;4.60;55.70
41437;DHT22;27178;49.460;10.850;2023-04-06T03:11:35;4.60;55.80
41437;DHT22;27178;49.460;10.850;2023-04-06T03:14:03;4.60;55.70
41437;DHT22;27178;49.460;10.850;2023-04-06T03:16:31;4.50;55.80
41437;DHT22;27178;49.460;10.850;2023-04-06T03:19:00;4.50;56.00
41437;DHT22;27178;49.460;10.850;2023-04-06T03:21:29;4.50;56.10
41437;DHT22;27178;49.460;10.850;2023-04-06T03:23:58;4.50;56.10
41437;DHT22;27178;49.460;10.850;2023-04-06T03:26:27;4.50;56.20
41437;DHT22;27178;49.460;10.850;2023-04-06T03:28:55;4.50;56.20
41437;DHT22;27178;49.460;10.850;2023-04-06T03:31:23;4.40;56.10
41437;DHT22;27178;49.460;10.850;2023-04-06T03:33:52;4.40;56.10
41437;DHT22;27178;49.460;10.850;2023-04-06T03:36:20;4.40;56.10
41437;DHT22;27178;49.460;10.850;2023-04-06T03:38:49;4.40;56.20
41437;DHT22;27178;49.460;10.850;2023-04-06T03:41:19;4.40;56.30
41437;DHT22;27178;49.460;10.850;2023-04-06T03:43:47;4.40;56.40
41437;DHT22;27178;49.460;10.850;2023-04-06T03:46:16;4.40;56.30
41437;DHT22;27178;49.460;10.850;2023-04-06T03:48:47;4.40;56.20
41437;DHT22;27178;49.460;10.850;2023-04-06T03:51:15;4.30;56.30
41437;DHT22;27178;49.460;10.850;2023-04-06T03:53:44;4.30;56.20
41437;DHT22;27178;49.460;10.850;2023-04-06T03:56:13;4.30;56.20
41437;DHT22;27178;49.460;10.850;2023-04-06T03:58:43;4.30;56.90
41437;DHT22;27178;49.460;10.850;2023-04-06T04:01:12;4.30;56.40
41437;DHT22;27178;49.460;10.850;2023-04-06T04:03:41;4.40;56.40
41437;DHT22;27178;49.460;10.850;2023-04-06T04:06:10;4.30;56.40
41437;DHT22;27178;49.460;10.850;2023-04-06T04:08:38;4.30;56.50
41437;DHT22;27178;49.460;10.850;2023-04-06T04:11:06;4.20;56.50
41437;DHT22;27178;49.460;10.850;2023-04-06T04:13:34;4.20;56.60
41437;DHT22;27178;49.460;10.850;2023-04-06T04:16:04;4.20;56.70
41437;DHT22;27178;49.460;10.850;2023-04-06T04:18:33;4.10;56.80
41437;DHT22;27178;49.460;10.850;2023-04-06T04:21:01;4.10;56.70
41437;DHT22;27178;49.460;10.850;2023-04-06T04:23:29;4.10;56.80
41437;DHT22;27178;49.460;10.850;2023-04-06T04:25:58;4.10;56.90
41437;DHT22;27178;49.460;10.850;2023-04-06T04:28:27;4.10;56.90
41437;DHT22;27178;49.460;10.850;2023-04-06T04:30:56;4.10;56.90
41437;DHT22;27178;49.460;10.850;2023-04-06T04:33:25;4.10;56.90
41437;DHT22;27178;49.460;10.850;2023-04-06T04:35:54;4.10;56.90
41437;DHT22;27178;49.460;10.850;2023-04-06T04:38:22;4.00;57.00
41437;DHT22;27178;49.460;10.850;2023-04-06T04:40:51;4.00;57.10
41437;DHT22;27178;49.460;10.850;2023-04-06T04:43:19;4.10;57.10
41437;DHT22;27178;49.460;10.850;2023-04-06T04:45:48;4.00;57.10
41437;DHT22;27178;49.460;10.850;2023-04-06T04:48:16;4.00;57.20
41437;DHT22;27178;49.460;10.850;2023-04-06T04:50:46;3.90;57.40
41437;DHT22;27178;49.460;10.850;2023-04-06T04:53:14;3.90;57.50
41437;DHT22;27178;49.460;10.850;2023-04-06T04:55:43;3.90;57.50
41437;DHT22;27178;49.460;10.850;2023-04-06T04:58:11;3.80;57.50
41437;DHT22;27178;49.460;10.850;2023-04-06T05:00:43;3.80;57.60
41437;DHT22;27178;49.460;10.850;2023-04-06T05:03:16;3.70;57.60
41437;DHT22;27178;49.460;10.850;2023-04-06T05:05:47;3.70;57.80
41437;DHT22;27178;49.460;10.850;2023-04-06T05:08:16;3.60;57.80
41437;DHT22;27178;49.460;10.850;2023-04-06T05:10:45;3.70;57.90
41437;DHT22;27178;49.460;10.850;2023-04-06T05:13:15;3.60;57.90
41437;DHT22;27178;49.460;10.850;2023-04-06T05:15:43;3.60;58.00
41437;DHT22;27178;49.460;10.850;2023-04-06T05:18:12;3.60;58.20
41437;DHT22;27178;49.460;10.850;2023-04-06T05:20:40;3.60;58.30
41437;DHT22;27178;49.460;10.850;2023-04-06T05:23:12;3.60;58.30
41437;DHT22;27178;49.460;10.850;2023-04-06T05:25:40;3.60;58.30
41437;DHT22;27178;49.460;10.850;2023-04-06T05:28:09;3.70;58.40
41437;DHT22;27178;49.460;10.850;2023-04-06T05:30:37;3.60;58.50
41437;DHT22;27178;49.460;10.850;2023-04-06T05:33:06;3.70;58.80
41437;DHT22;27178;49.460;10.850;2023-04-06T05:35:34;3.70;58.50
41437;DHT22;27178;49.460;10.850;2023-04-06T05:38:03;3.70;58.40
41437;DHT22;27178;49.460;10.850;2023-04-06T05:40:33;3.70;58.50
41437;DHT22;27178;49.460;10.850;2023-04-06T05:43:01;3.80;58.60
41437;DHT22;27178;49.460;10.850;2023-04-06T05:45:30;3.70;58.60
41437;DHT22;27178;49.460;10.850;2023-04-06T05:47:58;3.70;58.60
41437;DHT22;27178;49.460;10.850;2023-04-06T05:50:26;3.70;58.60
41437;DHT22;27178;49.460;10.850;2023-04-06T05:52:55;3.70;58.60
41437;DHT22;27178;49.460;10.850;2023-04-06T05:55:23;3.70;58.70
41437;DHT22;27178;49.460;10.850;2023-04-06T05:57:53;3.70;58.80
41437;DHT22;27178;49.460;10.850;2023-04-06T06:00:21;3.70;58.90
41437;DHT22;27178;49.460;10.850;2023-04-06T06:02:50;3.70;58.90
41437;DHT22;27178;49.460;10.850;2023-04-06T06:05:19;3.70;59.10
41437;DHT22;27178;49.460;10.850;2023-04-06T06:07:47;3.70;59.20
41437;DHT22;27178;49.460;10.850;2023-04-06T06:10:16;3.70;59.30
41437;DHT22;27178;49.460;10.850;2023-04-06T06:12:44;3.70;59.40
41437;DHT22;27178;49.460;10.850;2023-04-06T06:15:14;3.80;59.50
41437;DHT22;27178;49.460;10.850;2023-04-06T06:17:43;3.80;59.60
41437;DHT22;27178;49.460;10.850;2023-04-06T06:20:11;3.80;59.60
41437;DHT22;27178;49.460;10.850;2023-04-06T06:22:40;3.80;59.80
41437;DHT22;27178;49.460;10.850;2023-04-06T06:25:12;3.80;59.80
41437;DHT22;27178;49.460;10.850;2023-04-06T06:27:40;3.90;60.00
41437;DHT22;27178;49.460;10.850;2023-04-06T06:30:10;3.90;59.80
41437;DHT22;27178;49.460;10.850;2023-04-06T06:32:40;3.90;59.80
41437;DHT22;27178;49.460;10.850;2023-04-06T06:35:08;4.00;59.90
41437;DHT22;27178;49.460;10.850;2023-04-06T06:37:36;4.00;59.90
41437;DHT22;27178;49.460;10.850;2023-04-06T06:40:06;4.00;59.90
41437;DHT22;27178;49.460;10.850;2023-04-06T06:42:34;4.10;60.10
41437;DHT22;27178;49.460;10.850;2023-04-06T06:45:03;4.10;60.00
41437;DHT22;27178;49.460;10.850;2023-04-06T06:47:32;4.10;60.00
41437;DHT22;27178;49.460;10.850;2023-04-06T06:50:02;4.10;59.90
41437;DHT22;27178;49.460;10.850;2023-04-06T06:52:30;4.10;59.90
41437;DHT22;27178;49.460;10.850;2023-04-06T06:54:58;4.20;59.80
41437;DHT22;27178;49.460;10.850;2023-04-06T06:57:27;4.20;59.80
41437;DHT22;27178;49.460;10.850;2023-04-06T06:59:55;4.20;59.80
41437;DHT22;27178;49.460;10.850;2023-04-06T07:02:23;4.30;59.70
41437;DHT22;27178;49.460;10.850;2023-04-06T07:04:52;4.30;59.80
41437;DHT22;27178;49.460;10.850;2023-04-06T07:07:21;4.40;59.60
41437;DHT22;27178;49.460;10.850;2023-04-06T07:09:49;4.40;59.50
41437;DHT22;27178;49.460;10.850;2023-04-06T07:12:18;4.50;59.60
41437;DHT22;27178;49.460;10.850;2023-04-06T07:14:46;4.50;59.80
41437;DHT22;27178;49.460;10.850;2023-04-06T07:17:14;4.60;59.80
41437;DHT22;27178;49.460;10.850;2023-04-06T07:19:43;4.70;59.60
41437;DHT22;27178;49.460;10.850;2023-04-06T07:22:11;4.70;59.50
41437;DHT22;27178;49.460;10.850;2023-04-06T07:24:41;4.80;59.50
41437;DHT22;27178;49.460;10.850;2023-04-06T07:27:10;4.90;59.80
41437;DHT22;27178;49.460;10.850;2023-04-06T07:29:39;4.90;59.80
41437;DHT22;27178;49.460;10.850;2023-04-06T07:32:07;5.00;59.90
41437;DHT22;27178;49.460;10.850;2023-04-06T07:34:36;5.10;60.00
41437;DHT22;27178;49.460;10.850;2023-04-06T07:37:05;5.20;60.00
41437;DHT22;27178;49.460;10.850;2023-04-06T07:39:33;5.30;59.90
41437;DHT22;27178;49.460;10.850;2023-04-06T07:42:03;5.40;59.90
41437;DHT22;27178;49.460;10.850;2023-04-06T07:44:32;5.50;59.90
41437;DHT22;27178;49.460;10.850;2023-04-06T07:47:00;5.60;59.80
41437;DHT22;27178;49.460;10.850;2023-04-06T07:49:29;5.70;59.60
41437;DHT22;27178;49.460;10.850;2023-04-06T07:51:59;5.80;59.50
41437;DHT22;27178;49.460;10.850;2023-04-06T07:54:30;5.80;59.40
41437;DHT22;27178;49.460;10.850;2023-04-06T07:56:58;5.90;59.30
41437;DHT22;27178;49.460;10.850;2023-04-06T07:59:28;6.10;59.30
41437;DHT22;27178;49.460;10.850;2023-04-06T08:01:56;6.10;59.20
41437;DHT22;27178;49.460;10.850;2023-04-06T08:04:25;6.20;59.00
41437;DHT22;27178;49.460;10.850;2023-04-06T08:06:53;6.30;58.90
41437;DHT22;27178;49.460;10.850;2023-04-06T08:09:21;6.40;58.80
41437;DHT22;27178;49.460;10.850;2023-04-06T08:11:49;6.50;58.60
41437;DHT22;27178;49.460;10.850;2023-04-06T08:14:18;6.60;58.60
41437;DHT22;27178;49.460;10.850;2023-04-06T08:16:48;6.70;58.40
41437;DHT22;27178;49.460;10.850;2023-04-06T08:19:16;6.80;58.20
41437;DHT22;27178;49.460;10.850;2023-04-06T08:21:46;6.80;58.10
41437;DHT22;27178;49.460;10.850;2023-04-06T08:24:14;6.90;58.10
41437;DHT22;27178;49.460;10.850;2023-04-06T08:26:43;7.00;58.00
41437;DHT22;27178;49.460;10.850;2023-04-06T08:29:11;7.10;58.00
41437;DHT22;27178;49.460;10.850;2023-04-06T08:31:40;7.20;57.90
41437;DHT22;27178;49.460;10.850;2023-04-06T08:34:10;7.30;57.90
41437;DHT22;27178;49.460;10.850;2023-04-06T08:36:40;7.30;57.80
41437;DHT22;27178;49.460;10.850;2023-04-06T08:39:09;7.40;57.60
41437;DHT22;27178;49.460;10.850;2023-04-06T08:41:37;7.50;58.20
41437;DHT22;27178;49.460;10.850;2023-04-06T08:44:06;7.50;57.40
41437;DHT22;27178;49.460;10.850;2023-04-06T08:46:35;7.60;57.30
41437;DHT22;27178;49.460;10.850;2023-04-06T08:49:03;7.70;57.00
41437;DHT22;27178;49.460;10.850;2023-04-06T08:51:37;7.80;57.10
41437;DHT22;27178;49.460;10.850;2023-04-06T08:54:05;7.80;56.90
41437;DHT22;27178;49.460;10.850;2023-04-06T08:56:37;7.90;56.90
41437;DHT22;27178;49.460;10.850;2023-04-06T08:59:07;8.00;56.90
41437;DHT22;27178;49.460;10.850;2023-04-06T09:01:39;8.00;56.80
41437;DHT22;27178;49.460;10.850;2023-04-06T09:04:08;8.10;56.80
41437;DHT22;27178;49.460;10.850;2023-04-06T09:06:40;8.20;56.80
41437;DHT22;27178;49.460;10.850;2023-04-06T09:09:09;8.20;56.60
41437;DHT22;27178;49.460;10.850;2023-04-06T09:11:46;8.30;56.60
41437;DHT22;27178;49.460;10.850;2023-04-06T09:14:16;8.40;56.00
41437;DHT22;27178;49.460;10.850;2023-04-06T09:16:45;8.50;56.10
41437;DHT22;27178;49.460;10.850;2023-04-06T09:19:14;8.60;55.90
41437;DHT22;27178;49.460;10.850;2023-04-06T09:21:44;8.60;55.90
41437;DHT22;27178;49.460;10.850;2023-04-06T09:24:12;8.70;55.30
41437;DHT22;27178;49.460;10.850;2023-04-06T09:26:45;8.70;55.50
41437;DHT22;27178;49.460;10.850;2023-04-06T09:29:22;8.80;55.40
41437;DHT22;27178;49.460;10.850;2023-04-06T09:32:02;8.90;55.10
41437;DHT22;27178;49.460;10.850;2023-04-06T09:34:31;9.00;54.80
41437;DHT22;27178;49.460;10.850;2023-04-06T09:37:12;9.00;54.60
41437;DHT22;27178;49.460;10.850;2023-04-06T09:39:40;9.10;54.20
41437;DHT22;27178;49.460;10.850;2023-04-06T09:42:09;9.10;54.50
41437;DHT22;27178;49.460;10.850;2023-04-06T09:44:37;9.20;54.50
41437;DHT22;27178;49.460;10.850;2023-04-06T09:47:06;9.30;54.10
41437;DHT22;27178;49.460;10.850;2023-04-06T09:49:35;9.30;53.90
41437;DHT22;27178;49.460;10.850;2023-04-06T09:52:06;9.40;54.00
41437;DHT22;27178;49.460;10.850;2023-04-06T09:54:37;9.40;53.80
41437;DHT22;27178;49.460;10.850;2023-04-06T09:57:10;9.50;53.90
41437;DHT22;27178;49.460;10.850;2023-04-06T09:59:45;9.60;53.70
41437;DHT22;27178;49.460;10.850;2023-04-06T10:02:23;9.60;53.30
41437;DHT22;27178;49.460;10.850;2023-04-06T10:04:56;9.70;53.70
41437;DHT22;27178;49.460;10.850;2023-04-06T10:07:28;9.80;53.70
41437;DHT22;27178;49.460;10.850;2023-04-06T10:09:57;9.90;53.40
41437;DHT22;27178;49.460;10.850;2023-04-06T10:12:27;10.00;53.50
41437;DHT22;27178;49.460;10.850;2023-04-06T10:14:56;10.10;53.40
41437;DHT22;27178;49.460;10.850;2023-04-06T10:17:24;10.20;53.50
41437;DHT22;27178;49.460;10.850;2023-04-06T10:20:02;10.20;53.20
41437;DHT22;27178;49.460;10.850;2023-04-06T10:22:38;10.30;52.70
41437;DHT22;27178;49.460;10.850;2023-04-06T10:25:09;10.40;52.70
41437;DHT22;27178;49.460;10.850;2023-04-06T10:27:37;10.50;52.70
41437;DHT22;27178;49.460;10.850;2023-04-06T10:30:07;10.60;52.70
41437;DHT22;27178;49.460;10.850;2023-04-06T10:32:36;10.70;52.70
41437;DHT22;27178;49.460;10.850;2023-04-06T10:35:09;10.80;52.70
41437;DHT22;27178;49.460;10.850;2023-04-06T10:37:50;10.90;52.70
41437;DHT22;27178;49.460;10.850;2023-04-06T10:40:23;11.00;52.40
41437;DHT22;27178;49.460;10.850;2023-04-06T10:42:54;11.10;52.20
41437;DHT22;27178;49.460;10.850;2023-04-06T10:45:25;11.30;52.00
41437;DHT22;27178;49.460;10.850;2023-04-06T10:47:54;11.40;52.30
41437;DHT22;27178;49.460;10.850;2023-04-06T10:50:23;11.50;52.20
41437;DHT22;27178;49.460;10.850;2023-04-06T10:53:02;11.60;52.20
41437;DHT22;27178;49.460;10.850;2023-04-06T10:55:31;11.70;51.90
41437;DHT22;27178;49.460;10.850;2023-04-06T10:57:59;11.80;52.10
41437;DHT22;27178;49.460;10.850;2023-04-06T11:00:28;11.90;51.90
41437;DHT22;27178;49.460;10.850;2023-04-06T11:03:16;12.00;51.50
41437;DHT22;27178;49.460;10.850;2023-04-06T11:05:44;12.20;51.20
41437;DHT22;27178;49.460;10.850;2023-04-06T11:08:25;12.20;51.00
41437;DHT22;27178;49.460;10.850;2023-04-06T11:11:04;12.30;50.30
41437;DHT22;27178;49.460;10.850;2023-04-06T11:13:41;12.40;49.80
41437;DHT22;27178;49.460;10.850;2023-04-06T11:16:14;12.50;50.10
41437;DHT22;27178;49.460;10.850;2023-04-06T11:18:50;12.60;50.00
41437;DHT22;27178;49.460;10.850;2023-04-06T11:21:20;12.70;49.80
41437;DHT22;27178;49.460;10.850;2023-04-06T11:23:49;12.80;50.00
41437;DHT22;27178;49.460;10.850;2023-04-06T11:26:18;12.90;49.60
41437;DHT22;27178;49.460;10.850;2023-04-06T11:28:48;13.00;49.50
41437;DHT22;27178;49.460;10.850;2023-04-06T11:31:16;13.00;48.90
41437;DHT22;27178;49.460;10.850;2023-04-06T11:33:44;13.10;48.80
41437;DHT22;27178;49.460;10.850;2023-04-06T11:36:13;13.20;49.00
41437;DHT22;27178;49.460;10.850;2023-04-06T11:38:43;13.30;49.20
41437;DHT22;27178;49.460;10.850;2023-04-06T11:41:12;13.40;49.30
41437;DHT22;27178;49.460;10.850;2023-04-06T11:43:46;13.50;49.20
41437;DHT22;27178;49.460;10.850;2023-04-06T11:46:18;13.60;49.00
41437;DHT22;27178;49.460;10.850;2023-04-06T11:48:46;13.80;49.00
41437;DHT22;27178;49.460;10.850;2023-04-06T11:51:21;13.90;48.90
41437;DHT22;27178;49.460;10.850;2023-04-06T11:53:50;14.00;48.90
41437;DHT22;27178;49.460;10.850;2023-04-06T11:56:30;14.20;48.80
41437;DHT22;27178;49.460;10.850;2023-04-06T11:58:58;14.30;48.10
41437;DHT22;27178;49.460;10.850;2023-04-06T12:01:27;14.50;48.70
41437;DHT22;27178;49.460;10.850;2023-04-06T12:03:59;14.60;48.60
41437;DHT22;27178;49.460;10.850;2023-04-06T12:06:29;14.80;49.10
41437;DHT22;27178;49.460;10.850;2023-04-06T12:08:58;14.90;47.10
41437;DHT22;27178;49.460;10.850;2023-04-06T12:11:26;15.10;47.50
41437;DHT22;27178;49.460;10.850;2023-04-06T12:13:56;15.20;47.30
41437;DHT22;27178;49.460;10.850;2023-04-06T12:16:26;15.30;46.90
41437;DHT22;27178;49.460;10.850;2023-04-06T12:18:54;15.40;47.00
41437;DHT22;27178;49.460;10.850;2023-04-06T12:21:22;15.50;47.00
41437;DHT22;27178;49.460;10.850;2023-04-06T12:23:51;15.70;47.00
41437;DHT22;27178;49.460;10.850;2023-04-06T12:26:19;15.70;46.70
41437;DHT22;27178;49.460;10.850;2023-04-06T12:28:47;15.90;46.30
41437;DHT22;27178;49.460;10.850;2023-04-06T12:31:18;16.00;46.00
41437;DHT22;27178;49.460;10.850;2023-04-06T12:33:47;16.10;45.90
41437;DHT22;27178;49.460;10.850;2023-04-06T12:36:18;16.20;45.80
41437;DHT22;27178;49.460;10.850;2023-04-06T12:38:47;16.30;45.90
41437;DHT22;27178;49.460;10.850;2023-04-06T12:41:16;16.50;46.40
41437;DHT22;27178;49.460;10.850;2023-04-06T12:43:46;16.70;45.60
41437;DHT22;27178;49.460;10.850;2023-04-06T12:46:17;16.80;45.20
41437;DHT22;27178;49.460;10.850;2023-04-06T12:48:46;17.00;44.90
41437;DHT22;27178;49.460;10.850;2023-04-06T12:51:14;17.10;44.10
41437;DHT22;27178;49.460;10.850;2023-04-06T12:53:44;17.20;44.70
41437;DHT22;27178;49.460;10.850;2023-04-06T12:56:13;17.40;43.90
41437;DHT22;27178;49.460;10.850;2023-04-06T12:58:42;17.50;43.00
41437;DHT22;27178;49.460;10.850;2023-04-06T13:01:10;17.60;43.60
41437;DHT22;27178;49.460;10.850;2023-04-06T13:03:41;17.80;43.40
41437;DHT22;27178;49.460;10.850;2023-04-06T13:06:10;17.90;42.50
41437;DHT22;27178;49.460;10.850;2023-04-06T13:08:40;18.00;42.60
41437;DHT22;27178;49.460;10.850;2023-04-06T13:11:09;18.10;42.70
41437;DHT22;27178;49.460;10.850;2023-04-06T13:13:38;18.20;42.60
41437;DHT22;27178;49.460;10.850;2023-04-06T13:16:08;18.40;43.50
41437;DHT22;27178;49.460;10.850;2023-04-06T13:18:37;18.50;43.40
41437;DHT22;27178;49.460;10.850;2023-04-06T13:21:07;18.70;43.30
41437;DHT22;27178;49.460;10.850;2023-04-06T13:23:36;18.80;42.50
41437;DHT22;27178;49.460;10.850;2023-04-06T13:26:06;18.90;42.80
41437;DHT22;27178;49.460;10.850;2023-04-06T13:28:36;19.00;42.80
41437;DHT22;27178;49.460;10.850;2023-04-06T13:31:06;19.20;42.70
41437;DHT22;27178;49.460;10.850;2023-04-06T13:33:35;19.30;42.20
41437;DHT22;27178;49.460;10.850;2023-04-06T13:36:04;19.40;42.10
41437;DHT22;27178;49.460;10.850;2023-04-06T13:38:35;19.50;42.30
41437;DHT22;27178;49.460;10.850;2023-04-06T13:41:06;19.60;42.30
41437;DHT22;27178;49.460;10.850;2023-04-06T13:43:34;19.70;41.80
41437;DHT22;27178;49.460;10.850;2023-04-06T13:46:02;19.80;42.20
41437;DHT22;27178;49.460;10.850;2023-04-06T13:48:31;20.00;41.80
41437;DHT22;27178;49.460;10.850;2023-04-06T13:51:08;20.10;42.20
41437;DHT22;27178;49.460;10.850;2023-04-06T13:53:37;20.20;40.30
41437;DHT22;27178;49.460;10.850;2023-04-06T13:56:07;20.30;41.00
41437;DHT22;27178;49.460;10.850;2023-04-06T13:58:36;20.40;41.10
41437;DHT22;27178;49.460;10.850;2023-04-06T14:01:05;20.50;40.80
41437;DHT22;27178;49.460;10.850;2023-04-06T14:03:34;20.70;40.80
41437;DHT22;27178;49.460;10.850;2023-04-06T14:06:10;20.80;41.00
41437;DHT22;27178;49.460;10.850;2023-04-06T14:08:54;20.90;40.40
41437;DHT22;27178;49.460;10.850;2023-04-06T14:11:24;21.00;40.50
41437;DHT22;27178;49.460;10.850;2023-04-06T14:13:53;21.00;39.90
41437;DHT22;27178;49.460;10.850;2023-04-06T14:16:24;20.90;39.50
41437;DHT22;27178;49.460;10.850;2023-04-06T14:18:53;20.80;39.20
41437;DHT22;27178;49.460;10.850;2023-04-06T14:21:22;20.70;39.00
41437;DHT22;27178;49.460;10.850;2023-04-06T14:23:50;20.40;38.60
41437;DHT22;27178;49.460;10.850;2023-04-06T14:26:21;20.20;38.60
41437;DHT22;27178;49.460;10.850;2023-04-06T14:28:50;20.10;38.80
41437;DHT22;27178;49.460;10.850;2023-04-06T14:31:19;19.90;39.20
41437;DHT22;27178;49.460;10.850;2023-04-06T14:33:47;19.90;39.50
41437;DHT22;27178;49.460;10.850;2023-04-06T14:36:15;19.90;39.50
41437;DHT22;27178;49.460;10.850;2023-04-06T14:38:43;19.90;39.80
41437;DHT22;27178;49.460;10.850;2023-04-06T14:41:16;20.10;39.90
41437;DHT22;27178;49.460;10.850;2023-04-06T14:43:47;20.20;40.30
41437;DHT22;27178;49.460;10.850;2023-04-06T14:46:15;20.40;39.80
41437;DHT22;27178;49.460;10.850;2023-04-06T14:48:43;20.50;38.70
41437;DHT22;27178;49.460;10.850;2023-04-06T14:51:12;20.70;39.40
41437;DHT22;27178;49.460;10.850;2023-04-06T14:53:40;20.90;39.50
41437;DHT22;27178;49.460;10.850;2023-04-06T14:56:09;21.10;39.50
41437;DHT22;27178;49.460;10.850;2023-04-06T14:58:37;21.30;39.40
41437;DHT22;27178;49.460;10.850;2023-04-06T15:01:07;21.40;38.90
41437;DHT22;27178;49.460;10.850;2023-04-06T15:03:36;21.60;38.80
41437;DHT22;27178;49.460;10.850;2023-04-06T15:06:05;21.80;38.60
41437;DHT22;27178;49.460;10.850;2023-04-06T15:08:33;21.90;38.10
41437;DHT22;27178;49.460;10.850;2023-04-06T15:11:02;22.00;37.10
41437;DHT22;27178;49.460;10.850;2023-04-06T15:13:30;22.10;37.00
41437;DHT22;27178;49.460;10.850;2023-04-06T15:15:59;22.20;36.00
41437;DHT22;27178;49.460;10.850;2023-04-06T15:18:29;22.20;36.50
41437;DHT22;27178;49.460;10.850;2023-04-06T15:20:57;22.30;36.60
41437;DHT22;27178;49.460;10.850;2023-04-06T15:23:26;22.30;36.60
41437;DHT22;27178;49.460;10.850;2023-04-06T15:25:56;22.30;36.10
41437;DHT22;27178;49.460;10.850;2023-04-06T15:28:25;22.30;35.70
41437;DHT22;27178;49.460;10.850;2023-04-06T15:30:54;22.40;36.30
41437;DHT22;27178;49.460;10.850;2023-04-06T15:33:23;22.40;35.80
41437;DHT22;27178;49.460;10.850;2023-04-06T15:35:53;22.40;35.60
41437;DHT22;27178;49.460;10.850;2023-04-06T15:38:22;22.50;35.50